sensor_id;sensor_type;location;lat;lon;timestamp;temperature;humidity
24645;DHT22;12780;45.502;9.146;2023-04-03T00:00:10;14.20;99.90
24645;DHT22;12780;45.502;9.146;2023-04-03T00:02:36;14.10;99.90
24645;DHT22;12780;45.502;9.146;2023-04-03T00:05:01;14.10;99.90
24645;DHT22;12780;45.502;9.146;2023-04-03T00:07:27;14.10;99.90
24645;DHT22;12780;45.502;9.146;2023-04-03T00:09:52;14.10;99.90
24645;DHT22;12780;45.502;9.146;2023-04-03T00:12:18;14.00;99.90
24645;DHT22;12780;45.502;9.146;2023-04-03T00:14:43;14.00;99.90
24645;DHT22;12780;45.502;9.146;2023-04-03T00:17:09;14.00;99.90
24645;DHT22;12780;45.502;9.146;2023-04-03T00:19:34;13.90;99.90
24645;DHT22;12780;45.502;9.146;2023-04-03T00:22:00;13.90;99.90
24645;DHT22;12780;45.502;9.146;2023-04-03T00:24:26;13.90;99.90
24645;DHT22;12780;45.502;9.146;2023-04-03T00:26:51;14.10;99.90
24645;DHT22;12780;45.502;9.146;2023-04-03T00:29:17;13.90;99.90
24645;DHT22;12780;45.502;9.146;2023-04-03T00:31:42;13.90;99.90
24645;DHT22;12780;45.502;9.146;2023-04-03T00:34:08;14.00;99.90
24645;DHT22;12780;45.502;9.146;2023-04-03T00:36:33;13.80;99.90
24645;DHT22;12780;45.502;9.146;2023-04-03T00:38:59;13.70;99.90
24645;DHT22;12780;45.502;9.146;2023-04-03T00:41:24;13.70;99.90
24645;DHT22;12780;45.502;9.146;2023-04-03T00:43:50;13.70;99.90
24645;DHT22;12780;45.502;9.146;2023-04-03T00:46:16;13.70;99.90
24645;DHT22;12780;45.502;9.146;2023-04-03T00:48:45;13.70;99.90
24645;DHT22;12780;45.502;9.146;2023-04-03T00:51:16;13.70;99.90
24645;DHT22;12780;45.502;9.146;2023-04-03T00:53:52;13.60;99.90
24645;DHT22;12780;45.502;9.146;2023-04-03T00:56:21;13.60;99.90
24645;DHT22;12780;45.502;9.146;2023-04-03T00:58:54;13.60;99.90
24645;DHT22;12780;45.502;9.146;2023-04-03T01:01:25;13.60;99.90
24645;DHT22;12780;45.502;9.146;2023-04-03T01:03:51;13.60;99.90
24645;DHT22;12780;45.502;9.146;2023-04-03T01:06:28;13.60;99.90
24645;DHT22;12780;45.502;9.146;2023-04-03T01:08:56;13.40;99.90
24645;DHT22;12780;45.502;9.146;2023-04-03T01:11:22;13.30;99.90
24645;DHT22;12780;45.502;9.146;2023-04-03T01:13:48;13.20;99.90
24645;DHT22;12780;45.502;9.146;2023-04-03T01:16:14;13.20;99.90
24645;DHT22;12780;45.502;9.146;2023-04-03T01:18:41;13.20;99.90
24645;DHT22;12780;45.502;9.146;2023-04-03T01:21:18;13.20;99.90
24645;DHT22;12780;45.502;9.146;2023-04-03T01:24:16;13.30;99.90
24645;DHT22;12780;45.502;9.146;2023-04-03T01:26:46;13.20;99.90
24645;DHT22;12780;45.502;9.146;2023-04-03T01:29:12;13.20;99.90
24645;DHT22;12780;45.502;9.146;2023-04-03T01:31:44;13.20;99.90
24645;DHT22;12780;45.502;9.146;2023-04-03T01:34:09;13.30;99.90
24645;DHT22;12780;45.502;9.146;2023-04-03T01:36:35;13.30;99.90
24645;DHT22;12780;45.502;9.146;2023-04-03T01:39:01;13.20;99.90
24645;DHT22;12780;45.502;9.146;2023-04-03T01:41:27;13.20;99.90
24645;DHT22;12780;45.502;9.146;2023-04-03T01:43:53;13.30;99.90
24645;DHT22;12780;45.502;9.146;2023-04-03T01:46:19;13.30;99.90
24645;DHT22;12780;45.502;9.146;2023-04-03T01:48:45;13.30;99.90
24645;DHT22;12780;45.502;9.146;2023-04-03T01:51:11;13.30;99.90
24645;DHT22;12780;45.502;9.146;2023-04-03T01:53:37;13.30;99.90
24645;DHT22;12780;45.502;9.146;2023-04-03T01:56:03;13.20;99.90
24645;DHT22;12780;45.502;9.146;2023-04-03T01:58:29;13.20;99.90
24645;DHT22;12780;45.502;9.146;2023-04-03T02:00:55;13.20;99.90
24645;DHT22;12780;45.502;9.146;2023-04-03T02:03:21;13.20;99.90
24645;DHT22;12780;45.502;9.146;2023-04-03T02:05:46;13.20;99.90
24645;DHT22;12780;45.502;9.146;2023-04-03T02:08:12;13.20;99.90
24645;DHT22;12780;45.502;9.146;2023-04-03T02:10:38;13.20;99.90
24645;DHT22;12780;45.502;9.146;2023-04-03T02:13:03;13.20;99.90
24645;DHT22;12780;45.502;9.146;2023-04-03T02:15:29;13.20;99.90
24645;DHT22;12780;45.502;9.146;2023-04-03T02:17:54;13.10;99.90
24645;DHT22;12780;45.502;9.146;2023-04-03T02:20:20;12.90;99.90
24645;DHT22;12780;45.502;9.146;2023-04-03T02:22:46;12.80;99.90
24645;DHT22;12780;45.502;9.146;2023-04-03T02:25:12;12.70;99.90
24645;DHT22;12780;45.502;9.146;2023-04-03T02:27:38;12.70;99.90
24645;DHT22;12780;45.502;9.146;2023-04-03T02:30:04;12.70;99.90
24645;DHT22;12780;45.502;9.146;2023-04-03T02:32:30;12.70;99.90
24645;DHT22;12780;45.502;9.146;2023-04-03T02:34:56;12.70;99.90
24645;DHT22;12780;45.502;9.146;2023-04-03T02:37:22;12.80;99.90
24645;DHT22;12780;45.502;9.146;2023-04-03T02:39:47;12.80;99.90
24645;DHT22;12780;45.502;9.146;2023-04-03T02:42:13;12.80;99.90
24645;DHT22;12780;45.502;9.146;2023-04-03T02:44:39;12.80;99.90
24645;DHT22;12780;45.502;9.146;2023-04-03T02:47:05;12.80;99.90
24645;DHT22;12780;45.502;9.146;2023-04-03T02:49:31;12.80;99.90
24645;DHT22;12780;45.502;9.146;2023-04-03T02:51:56;12.80;99.90
24645;DHT22;12780;45.502;9.146;2023-04-03T02:54:22;12.80;99.90
24645;DHT22;12780;45.502;9.146;2023-04-03T02:56:49;12.80;99.90
24645;DHT22;12780;45.502;9.146;2023-04-03T02:59:14;12.80;99.90
24645;DHT22;12780;45.502;9.146;2023-04-03T03:01:40;12.80;99.90
24645;DHT22;12780;45.502;9.146;2023-04-03T03:04:06;12.70;99.90
24645;DHT22;12780;45.502;9.146;2023-04-03T03:06:31;12.70;99.90
24645;DHT22;12780;45.502;9.146;2023-04-03T03:08:57;12.70;99.90
24645;DHT22;12780;45.502;9.146;2023-04-03T03:11:22;12.60;99.90
24645;DHT22;12780;45.502;9.146;2023-04-03T03:13:48;12.60;99.90
24645;DHT22;12780;45.502;9.146;2023-04-03T03:16:13;12.60;99.90
24645;DHT22;12780;45.502;9.146;2023-04-03T03:18:39;12.60;99.90
24645;DHT22;12780;45.502;9.146;2023-04-03T03:21:05;12.60;99.90
24645;DHT22;12780;45.502;9.146;2023-04-03T03:23:31;12.60;99.90
24645;DHT22;12780;45.502;9.146;2023-04-03T03:26:09;12.60;99.90
24645;DHT22;12780;45.502;9.146;2023-04-03T03:28:36;12.50;99.90
24645;DHT22;12780;45.502;9.146;2023-04-03T03:31:02;12.50;99.90
24645;DHT22;12780;45.502;9.146;2023-04-03T03:33:28;12.50;99.90
24645;DHT22;12780;45.502;9.146;2023-04-03T03:35:54;12.50;99.90
24645;DHT22;12780;45.502;9.146;2023-04-03T03:38:20;12.50;99.90
24645;DHT22;12780;45.502;9.146;2023-04-03T03:40:49;12.50;99.90
24645;DHT22;12780;45.502;9.146;2023-04-03T03:43:16;12.50;99.90
24645;DHT22;12780;45.502;9.146;2023-04-03T03:45:41;12.50;99.90
24645;DHT22;12780;45.502;9.146;2023-04-03T03:48:07;12.50;99.90
24645;DHT22;12780;45.502;9.146;2023-04-03T03:50:33;12.50;99.90
24645;DHT22;12780;45.502;9.146;2023-04-03T03:52:59;12.50;99.90
24645;DHT22;12780;45.502;9.146;2023-04-03T03:55:25;12.40;99.90
24645;DHT22;12780;45.502;9.146;2023-04-03T03:57:51;12.50;99.90
24645;DHT22;12780;45.502;9.146;2023-04-03T04:00:17;12.40;99.90
24645;DHT22;12780;45.502;9.146;2023-04-03T04:02:43;12.40;99.90
24645;DHT22;12780;45.502;9.146;2023-04-03T04:05:09;12.40;99.90
24645;DHT22;12780;45.502;9.146;2023-04-03T04:07:35;12.40;99.90
24645;DHT22;12780;45.502;9.146;2023-04-03T04:10:01;12.50;99.90
24645;DHT22;12780;45.502;9.146;2023-04-03T04:12:27;12.40;99.90
24645;DHT22;12780;45.502;9.146;2023-04-03T04:14:52;12.50;99.90
24645;DHT22;12780;45.502;9.146;2023-04-03T04:17:18;12.40;99.90
24645;DHT22;12780;45.502;9.146;2023-04-03T04:19:43;12.30;99.90
24645;DHT22;12780;45.502;9.146;2023-04-03T04:22:09;12.40;99.90
24645;DHT22;12780;45.502;9.146;2023-04-03T04:24:35;12.40;99.90
24645;DHT22;12780;45.502;9.146;2023-04-03T04:27:00;12.30;99.90
24645;DHT22;12780;45.502;9.146;2023-04-03T04:29:26;12.30;99.90
24645;DHT22;12780;45.502;9.146;2023-04-03T04:31:52;12.30;99.90
24645;DHT22;12780;45.502;9.146;2023-04-03T04:34:17;12.30;99.90
24645;DHT22;12780;45.502;9.146;2023-04-03T04:36:43;12.30;99.90
24645;DHT22;12780;45.502;9.146;2023-04-03T04:39:08;12.30;99.90
24645;DHT22;12780;45.502;9.146;2023-04-03T04:41:34;12.30;99.90
24645;DHT22;12780;45.502;9.146;2023-04-03T04:44:00;12.40;99.90
24645;DHT22;12780;45.502;9.146;2023-04-03T04:46:26;12.40;99.90
24645;DHT22;12780;45.502;9.146;2023-04-03T04:48:52;12.30;99.90
24645;DHT22;12780;45.502;9.146;2023-04-03T04:51:18;12.20;99.90
24645;DHT22;12780;45.502;9.146;2023-04-03T04:53:43;12.20;99.90
24645;DHT22;12780;45.502;9.146;2023-04-03T04:56:09;12.20;99.90
24645;DHT22;12780;45.502;9.146;2023-04-03T04:58:35;12.20;99.90
24645;DHT22;12780;45.502;9.146;2023-04-03T05:01:06;12.10;99.90
24645;DHT22;12780;45.502;9.146;2023-04-03T05:03:32;12.10;99.90
24645;DHT22;12780;45.502;9.146;2023-04-03T05:05:58;12.00;99.90
24645;DHT22;12780;45.502;9.146;2023-04-03T05:08:24;12.00;99.90
24645;DHT22;12780;45.502;9.146;2023-04-03T05:10:50;12.00;99.90
24645;DHT22;12780;45.502;9.146;2023-04-03T05:13:16;12.00;99.90
24645;DHT22;12780;45.502;9.146;2023-04-03T05:15:42;12.10;99.90
24645;DHT22;12780;45.502;9.146;2023-04-03T05:18:07;12.10;99.90
24645;DHT22;12780;45.502;9.146;2023-04-03T05:20:33;12.00;99.90
24645;DHT22;12780;45.502;9.146;2023-04-03T05:22:59;12.00;99.90
24645;DHT22;12780;45.502;9.146;2023-04-03T05:25:24;12.00;99.90
24645;DHT22;12780;45.502;9.146;2023-04-03T05:27:50;12.10;99.90
24645;DHT22;12780;45.502;9.146;2023-04-03T05:30:16;12.10;99.90
24645;DHT22;12780;45.502;9.146;2023-04-03T05:32:42;12.10;99.90
24645;DHT22;12780;45.502;9.146;2023-04-03T05:35:08;12.10;99.90
24645;DHT22;12780;45.502;9.146;2023-04-03T05:37:34;12.10;99.90
24645;DHT22;12780;45.502;9.146;2023-04-03T05:40:00;12.10;99.90
24645;DHT22;12780;45.502;9.146;2023-04-03T05:42:26;12.10;99.90
24645;DHT22;12780;45.502;9.146;2023-04-03T05:44:51;12.10;99.90
24645;DHT22;12780;45.502;9.146;2023-04-03T05:47:18;12.20;99.90
24645;DHT22;12780;45.502;9.146;2023-04-03T05:49:44;12.10;99.90
24645;DHT22;12780;45.502;9.146;2023-04-03T05:52:26;12.20;99.90
24645;DHT22;12780;45.502;9.146;2023-04-03T05:54:52;12.20;99.90
24645;DHT22;12780;45.502;9.146;2023-04-03T05:57:18;12.20;99.90
24645;DHT22;12780;45.502;9.146;2023-04-03T05:59:44;12.20;99.90
24645;DHT22;12780;45.502;9.146;2023-04-03T06:02:12;12.20;99.90
24645;DHT22;12780;45.502;9.146;2023-04-03T06:04:38;12.20;99.90
24645;DHT22;12780;45.502;9.146;2023-04-03T06:07:04;12.20;99.90
24645;DHT22;12780;45.502;9.146;2023-04-03T06:09:30;12.10;99.90
24645;DHT22;12780;45.502;9.146;2023-04-03T06:11:56;12.10;99.90
24645;DHT22;12780;45.502;9.146;2023-04-03T06:14:24;12.00;99.90
24645;DHT22;12780;45.502;9.146;2023-04-03T06:16:51;12.40;99.90
24645;DHT22;12780;45.502;9.146;2023-04-03T06:19:17;12.30;99.90
24645;DHT22;12780;45.502;9.146;2023-04-03T06:21:42;12.40;99.90
24645;DHT22;12780;45.502;9.146;2023-04-03T06:24:09;12.40;99.90
24645;DHT22;12780;45.502;9.146;2023-04-03T06:26:35;12.40;99.90
24645;DHT22;12780;45.502;9.146;2023-04-03T06:29:00;12.50;99.90
24645;DHT22;12780;45.502;9.146;2023-04-03T06:31:27;12.50;99.90
24645;DHT22;12780;45.502;9.146;2023-04-03T06:33:52;12.50;99.90
24645;DHT22;12780;45.502;9.146;2023-04-03T06:36:20;12.60;99.90
24645;DHT22;12780;45.502;9.146;2023-04-03T06:38:46;12.70;99.90
24645;DHT22;12780;45.502;9.146;2023-04-03T06:41:12;12.80;99.90
24645;DHT22;12780;45.502;9.146;2023-04-03T06:43:38;12.90;99.90
24645;DHT22;12780;45.502;9.146;2023-04-03T06:46:03;13.00;99.90
24645;DHT22;12780;45.502;9.146;2023-04-03T06:48:29;13.00;99.90
24645;DHT22;12780;45.502;9.146;2023-04-03T06:50:55;13.10;99.90
24645;DHT22;12780;45.502;9.146;2023-04-03T06:53:20;13.20;99.90
24645;DHT22;12780;45.502;9.146;2023-04-03T06:55:47;13.30;99.90
24645;DHT22;12780;45.502;9.146;2023-04-03T06:58:13;13.30;99.90
24645;DHT22;12780;45.502;9.146;2023-04-03T07:00:40;13.40;99.90
24645;DHT22;12780;45.502;9.146;2023-04-03T07:03:06;13.60;99.90
24645;DHT22;12780;45.502;9.146;2023-04-03T07:05:32;13.70;99.90
24645;DHT22;12780;45.502;9.146;2023-04-03T07:07:58;13.60;99.90
24645;DHT22;12780;45.502;9.146;2023-04-03T07:10:23;13.70;99.90
24645;DHT22;12780;45.502;9.146;2023-04-03T07:12:49;13.70;99.90
24645;DHT22;12780;45.502;9.146;2023-04-03T07:15:15;13.60;99.90
24645;DHT22;12780;45.502;9.146;2023-04-03T07:17:40;13.90;99.90
24645;DHT22;12780;45.502;9.146;2023-04-03T07:20:07;14.00;99.90
24645;DHT22;12780;45.502;9.146;2023-04-03T07:22:33;14.00;99.90
24645;DHT22;12780;45.502;9.146;2023-04-03T07:24:59;14.10;99.90
24645;DHT22;12780;45.502;9.146;2023-04-03T07:27:25;14.30;99.90
24645;DHT22;12780;45.502;9.146;2023-04-03T07:29:51;14.40;99.90
24645;DHT22;12780;45.502;9.146;2023-04-03T07:32:17;14.50;99.90
24645;DHT22;12780;45.502;9.146;2023-04-03T07:34:43;14.60;99.90
24645;DHT22;12780;45.502;9.146;2023-04-03T07:37:09;14.60;99.90
24645;DHT22;12780;45.502;9.146;2023-04-03T07:39:35;14.70;99.90
24645;DHT22;12780;45.502;9.146;2023-04-03T07:42:01;14.80;99.90
24645;DHT22;12780;45.502;9.146;2023-04-03T07:44:27;14.80;99.90
24645;DHT22;12780;45.502;9.146;2023-04-03T07:46:53;14.90;99.90
24645;DHT22;12780;45.502;9.146;2023-04-03T07:49:21;14.90;99.90
24645;DHT22;12780;45.502;9.146;2023-04-03T07:54:34;15.00;99.90
24645;DHT22;12780;45.502;9.146;2023-04-03T07:57:00;15.20;99.90
24645;DHT22;12780;45.502;9.146;2023-04-03T07:59:26;15.20;99.90
24645;DHT22;12780;45.502;9.146;2023-04-03T08:01:52;15.00;99.90
24645;DHT22;12780;45.502;9.146;2023-04-03T08:04:17;15.20;99.90
24645;DHT22;12780;45.502;9.146;2023-04-03T08:06:43;15.30;99.90
24645;DHT22;12780;45.502;9.146;2023-04-03T08:09:09;15.30;99.90
24645;DHT22;12780;45.502;9.146;2023-04-03T08:11:34;15.20;99.90
24645;DHT22;12780;45.502;9.146;2023-04-03T08:14:01;15.20;99.90
24645;DHT22;12780;45.502;9.146;2023-04-03T08:16:27;15.20;99.90
24645;DHT22;12780;45.502;9.146;2023-04-03T08:18:54;15.30;99.90
24645;DHT22;12780;45.502;9.146;2023-04-03T08:21:21;15.30;99.90
24645;DHT22;12780;45.502;9.146;2023-04-03T08:23:49;15.40;99.90
24645;DHT22;12780;45.502;9.146;2023-04-03T08:26:18;15.40;99.90
24645;DHT22;12780;45.502;9.146;2023-04-03T08:28:44;15.40;99.90
24645;DHT22;12780;45.502;9.146;2023-04-03T08:31:12;15.50;99.90
24645;DHT22;12780;45.502;9.146;2023-04-03T08:33:39;15.60;99.90
24645;DHT22;12780;45.502;9.146;2023-04-03T08:36:07;15.60;99.90
24645;DHT22;12780;45.502;9.146;2023-04-03T08:38:34;15.70;99.90
24645;DHT22;12780;45.502;9.146;2023-04-03T08:41:11;15.70;99.90
24645;DHT22;12780;45.502;9.146;2023-04-03T08:46:23;15.80;99.90
24645;DHT22;12780;45.502;9.146;2023-04-03T08:48:51;15.90;99.90
24645;DHT22;12780;45.502;9.146;2023-04-03T08:51:20;16.00;99.90
24645;DHT22;12780;45.502;9.146;2023-04-03T08:53:57;16.00;99.90
24645;DHT22;12780;45.502;9.146;2023-04-03T08:56:25;16.00;99.90
24645;DHT22;12780;45.502;9.146;2023-04-03T08:58:56;15.90;99.90
24645;DHT22;12780;45.502;9.146;2023-04-03T09:01:27;16.00;99.90
24645;DHT22;12780;45.502;9.146;2023-04-03T09:03:55;15.90;99.90
24645;DHT22;12780;45.502;9.146;2023-04-03T09:06:26;15.90;99.90
24645;DHT22;12780;45.502;9.146;2023-04-03T09:11:35;16.00;99.90
24645;DHT22;12780;45.502;9.146;2023-04-03T09:14:29;15.90;99.90
24645;DHT22;12780;45.502;9.146;2023-04-03T09:17:04;16.00;99.90
24645;DHT22;12780;45.502;9.146;2023-04-03T09:19:45;16.10;99.90
24645;DHT22;12780;45.502;9.146;2023-04-03T09:22:25;16.10;99.90
24645;DHT22;12780;45.502;9.146;2023-04-03T09:25:23;16.10;99.90
24645;DHT22;12780;45.502;9.146;2023-04-03T09:27:49;16.10;99.90
24645;DHT22;12780;45.502;9.146;2023-04-03T09:30:17;16.20;99.90
24645;DHT22;12780;45.502;9.146;2023-04-03T09:32:45;16.20;99.90
24645;DHT22;12780;45.502;9.146;2023-04-03T09:35:30;16.20;99.90
24645;DHT22;12780;45.502;9.146;2023-04-03T09:38:14;16.30;99.90
24645;DHT22;12780;45.502;9.146;2023-04-03T09:40:47;16.30;99.90
24645;DHT22;12780;45.502;9.146;2023-04-03T09:45:43;16.50;99.90
24645;DHT22;12780;45.502;9.146;2023-04-03T09:53:36;16.70;99.90
24645;DHT22;12780;45.502;9.146;2023-04-03T09:56:36;16.70;99.90
24645;DHT22;12780;45.502;9.146;2023-04-03T10:01:32;16.70;99.90
24645;DHT22;12780;45.502;9.146;2023-04-03T10:06:45;16.80;99.90
24645;DHT22;12780;45.502;9.146;2023-04-03T10:09:23;16.80;99.90
24645;DHT22;12780;45.502;9.146;2023-04-03T10:12:03;16.80;99.90
24645;DHT22;12780;45.502;9.146;2023-04-03T10:14:36;16.70;99.90
24645;DHT22;12780;45.502;9.146;2023-04-03T10:17:17;17.00;99.90
24645;DHT22;12780;45.502;9.146;2023-04-03T10:19:52;16.90;99.90
24645;DHT22;12780;45.502;9.146;2023-04-03T10:22:41;16.90;99.90
24645;DHT22;12780;45.502;9.146;2023-04-03T10:27:42;17.00;99.90
24645;DHT22;12780;45.502;9.146;2023-04-03T10:30:46;17.10;99.90
24645;DHT22;12780;45.502;9.146;2023-04-03T10:33:51;17.10;99.90
24645;DHT22;12780;45.502;9.146;2023-04-03T10:36:18;17.00;99.90
24645;DHT22;12780;45.502;9.146;2023-04-03T10:38:55;17.00;99.90
24645;DHT22;12780;45.502;9.146;2023-04-03T10:44:26;17.40;99.90
24645;DHT22;12780;45.502;9.146;2023-04-03T10:47:16;17.50;99.90
24645;DHT22;12780;45.502;9.146;2023-04-03T10:55:43;17.70;99.90
24645;DHT22;12780;45.502;9.146;2023-04-03T10:58:25;17.70;99.90
24645;DHT22;12780;45.502;9.146;2023-04-03T11:00:53;17.70;99.90
24645;DHT22;12780;45.502;9.146;2023-04-03T11:05:52;17.50;99.90
24645;DHT22;12780;45.502;9.146;2023-04-03T11:11:09;17.60;99.90
24645;DHT22;12780;45.502;9.146;2023-04-03T11:13:50;17.70;99.90
24645;DHT22;12780;45.502;9.146;2023-04-03T11:16:23;17.90;99.90
24645;DHT22;12780;45.502;9.146;2023-04-03T11:19:02;18.00;99.90
24645;DHT22;12780;45.502;9.146;2023-04-03T11:21:33;18.20;99.90
24645;DHT22;12780;45.502;9.146;2023-04-03T11:24:03;18.30;99.90
24645;DHT22;12780;45.502;9.146;2023-04-03T11:26:36;18.30;99.90
24645;DHT22;12780;45.502;9.146;2023-04-03T11:29:07;18.30;99.90
24645;DHT22;12780;45.502;9.146;2023-04-03T11:34:37;18.50;99.90
24645;DHT22;12780;45.502;9.146;2023-04-03T11:37:43;18.50;99.90
24645;DHT22;12780;45.502;9.146;2023-04-03T11:42:47;18.60;99.90
24645;DHT22;12780;45.502;9.146;2023-04-03T11:50:57;19.00;99.90
24645;DHT22;12780;45.502;9.146;2023-04-03T11:55:54;19.20;99.90
24645;DHT22;12780;45.502;9.146;2023-04-03T11:58:27;19.30;99.90
24645;DHT22;12780;45.502;9.146;2023-04-03T12:00:54;19.30;99.90
24645;DHT22;12780;45.502;9.146;2023-04-03T12:16:43;19.60;99.90
24645;DHT22;12780;45.502;9.146;2023-04-03T12:26:43;19.10;99.90
24645;DHT22;12780;45.502;9.146;2023-04-03T12:40:43;19.30;99.90
24645;DHT22;12780;45.502;9.146;2023-04-03T12:43:38;19.40;99.90
24645;DHT22;12780;45.502;9.146;2023-04-03T12:51:14;19.20;99.90
24645;DHT22;12780;45.502;9.146;2023-04-03T12:53:42;19.20;99.90
24645;DHT22;12780;45.502;9.146;2023-04-03T12:56:31;19.20;99.90
24645;DHT22;12780;45.502;9.146;2023-04-03T13:01:43;19.00;99.90
24645;DHT22;12780;45.502;9.146;2023-04-03T13:04:10;18.90;99.90
24645;DHT22;12780;45.502;9.146;2023-04-03T13:06:40;18.90;99.90
24645;DHT22;12780;45.502;9.146;2023-04-03T13:11:50;18.80;99.90
24645;DHT22;12780;45.502;9.146;2023-04-03T13:14:21;18.90;99.90
24645;DHT22;12780;45.502;9.146;2023-04-03T13:16:58;18.90;99.90
24645;DHT22;12780;45.502;9.146;2023-04-03T13:19:26;18.90;99.90
24645;DHT22;12780;45.502;9.146;2023-04-03T13:24:51;19.00;99.90
24645;DHT22;12780;45.502;9.146;2023-04-03T13:27:18;19.00;99.90
24645;DHT22;12780;45.502;9.146;2023-04-03T13:29:48;19.00;99.90
24645;DHT22;12780;45.502;9.146;2023-04-03T13:32:23;19.00;99.90
24645;DHT22;12780;45.502;9.146;2023-04-03T13:34:50;19.00;99.90
24645;DHT22;12780;45.502;9.146;2023-04-03T13:37:28;18.90;99.90
24645;DHT22;12780;45.502;9.146;2023-04-03T13:40:11;18.90;99.90
24645;DHT22;12780;45.502;9.146;2023-04-03T13:42:39;19.00;99.90
24645;DHT22;12780;45.502;9.146;2023-04-03T13:45:26;18.90;99.90
24645;DHT22;12780;45.502;9.146;2023-04-03T13:48:37;18.90;99.90
24645;DHT22;12780;45.502;9.146;2023-04-03T13:50:56;18.80;99.90
24645;DHT22;12780;45.502;9.146;2023-04-03T13:53:24;18.70;99.90
24645;DHT22;12780;45.502;9.146;2023-04-03T13:58:30;18.70;99.90
24645;DHT22;12780;45.502;9.146;2023-04-03T14:04:13;18.80;99.90
24645;DHT22;12780;45.502;9.146;2023-04-03T14:06:30;18.80;99.90
24645;DHT22;12780;45.502;9.146;2023-04-03T14:08:56;18.90;99.90
24645;DHT22;12780;45.502;9.146;2023-04-03T14:11:26;18.90;99.90
24645;DHT22;12780;45.502;9.146;2023-04-03T14:13:55;19.00;99.90
24645;DHT22;12780;45.502;9.146;2023-04-03T14:16:24;19.00;99.90
24645;DHT22;12780;45.502;9.146;2023-04-03T14:18:52;18.80;99.90
24645;DHT22;12780;45.502;9.146;2023-04-03T14:21:19;18.80;99.90
24645;DHT22;12780;45.502;9.146;2023-04-03T14:23:46;18.80;99.90
24645;DHT22;12780;45.502;9.146;2023-04-03T14:26:14;18.70;99.90
24645;DHT22;12780;45.502;9.146;2023-04-03T14:28:42;19.00;99.90
24645;DHT22;12780;45.502;9.146;2023-04-03T14:31:10;18.80;99.90
24645;DHT22;12780;45.502;9.146;2023-04-03T14:33:36;18.80;99.90
24645;DHT22;12780;45.502;9.146;2023-04-03T14:36:19;18.60;99.90
24645;DHT22;12780;45.502;9.146;2023-04-03T14:38:46;18.70;99.90
24645;DHT22;12780;45.502;9.146;2023-04-03T14:41:13;18.70;99.90
24645;DHT22;12780;45.502;9.146;2023-04-03T14:43:40;18.70;99.90
24645;DHT22;12780;45.502;9.146;2023-04-03T14:46:17;18.70;99.90
24645;DHT22;12780;45.502;9.146;2023-04-03T14:48:45;18.70;99.90
24645;DHT22;12780;45.502;9.146;2023-04-03T14:51:12;18.60;99.90
24645;DHT22;12780;45.502;9.146;2023-04-03T14:53:39;18.50;99.90
24645;DHT22;12780;45.502;9.146;2023-04-03T14:56:20;18.40;99.90
24645;DHT22;12780;45.502;9.146;2023-04-03T14:58:59;18.40;99.90
24645;DHT22;12780;45.502;9.146;2023-04-03T15:01:26;18.20;99.90
24645;DHT22;12780;45.502;9.146;2023-04-03T15:03:52;18.00;99.90
24645;DHT22;12780;45.502;9.146;2023-04-03T15:06:18;17.90;99.90
24645;DHT22;12780;45.502;9.146;2023-04-03T15:08:45;17.90;99.90
24645;DHT22;12780;45.502;9.146;2023-04-03T15:11:12;17.80;99.90
24645;DHT22;12780;45.502;9.146;2023-04-03T15:13:38;17.80;99.90
24645;DHT22;12780;45.502;9.146;2023-04-03T15:16:05;17.90;99.90
24645;DHT22;12780;45.502;9.146;2023-04-03T15:18:37;17.80;99.90
24645;DHT22;12780;45.502;9.146;2023-04-03T15:21:04;17.70;99.90
24645;DHT22;12780;45.502;9.146;2023-04-03T15:23:30;17.70;99.90
24645;DHT22;12780;45.502;9.146;2023-04-03T15:25:56;17.50;99.90
24645;DHT22;12780;45.502;9.146;2023-04-03T15:28:29;17.50;99.90
24645;DHT22;12780;45.502;9.146;2023-04-03T15:30:55;17.50;99.90
24645;DHT22;12780;45.502;9.146;2023-04-03T15:33:21;17.40;99.90
24645;DHT22;12780;45.502;9.146;2023-04-03T15:35:47;17.30;99.90
24645;DHT22;12780;45.502;9.146;2023-04-03T15:38:13;17.30;99.90
24645;DHT22;12780;45.502;9.146;2023-04-03T15:40:39;17.20;99.90
24645;DHT22;12780;45.502;9.146;2023-04-03T15:43:05;17.20;99.90
24645;DHT22;12780;45.502;9.146;2023-04-03T15:45:32;17.30;99.90
24645;DHT22;12780;45.502;9.146;2023-04-03T15:47:59;17.10;99.90
24645;DHT22;12780;45.502;9.146;2023-04-03T15:50:25;17.00;99.90
24645;DHT22;12780;45.502;9.146;2023-04-03T15:52:52;17.10;99.90
24645;DHT22;12780;45.502;9.146;2023-04-03T15:55:24;16.90;99.90
24645;DHT22;12780;45.502;9.146;2023-04-03T15:57:51;17.10;99.90
24645;DHT22;12780;45.502;9.146;2023-04-03T16:00:17;17.20;99.90
24645;DHT22;12780;45.502;9.146;2023-04-03T16:02:46;17.20;99.90
24645;DHT22;12780;45.502;9.146;2023-04-03T16:05:14;17.20;99.90
24645;DHT22;12780;45.502;9.146;2023-04-03T16:07:41;17.10;99.90
24645;DHT22;12780;45.502;9.146;2023-04-03T16:10:08;17.10;99.90
24645;DHT22;12780;45.502;9.146;2023-04-03T16:12:34;17.00;99.90
24645;DHT22;12780;45.502;9.146;2023-04-03T16:15:00;17.00;99.90
24645;DHT22;12780;45.502;9.146;2023-04-03T16:17:26;16.80;99.90
24645;DHT22;12780;45.502;9.146;2023-04-03T16:19:51;16.70;99.90
24645;DHT22;12780;45.502;9.146;2023-04-03T16:22:17;16.60;99.90
24645;DHT22;12780;45.502;9.146;2023-04-03T16:24:43;16.60;99.90
24645;DHT22;12780;45.502;9.146;2023-04-03T16:27:10;16.50;99.90
24645;DHT22;12780;45.502;9.146;2023-04-03T16:29:35;16.40;99.90
24645;DHT22;12780;45.502;9.146;2023-04-03T16:32:02;16.30;99.90
24645;DHT22;12780;45.502;9.146;2023-04-03T16:34:27;16.40;99.90
24645;DHT22;12780;45.502;9.146;2023-04-03T16:36:55;16.30;99.90
24645;DHT22;12780;45.502;9.146;2023-04-03T16:39:21;16.10;99.90
24645;DHT22;12780;45.502;9.146;2023-04-03T16:41:46;16.20;99.90
24645;DHT22;12780;45.502;9.146;2023-04-03T16:44:12;16.00;99.90
24645;DHT22;12780;45.502;9.146;2023-04-03T16:46:37;16.00;99.90
24645;DHT22;12780;45.502;9.146;2023-04-03T16:49:03;15.90;99.90
24645;DHT22;12780;45.502;9.146;2023-04-03T16:51:29;16.00;99.90
24645;DHT22;12780;45.502;9.146;2023-04-03T16:53:55;16.00;99.90
24645;DHT22;12780;45.502;9.146;2023-04-03T16:56:21;16.00;99.90
24645;DHT22;12780;45.502;9.146;2023-04-03T16:58:47;15.90;99.90
24645;DHT22;12780;45.502;9.146;2023-04-03T17:01:18;16.00;99.90
24645;DHT22;12780;45.502;9.146;2023-04-03T17:03:44;15.80;99.90
24645;DHT22;12780;45.502;9.146;2023-04-03T17:06:11;15.80;99.90
24645;DHT22;12780;45.502;9.146;2023-04-03T17:08:42;15.80;99.90
24645;DHT22;12780;45.502;9.146;2023-04-03T17:11:08;15.80;99.90
24645;DHT22;12780;45.502;9.146;2023-04-03T17:13:34;15.70;99.90
24645;DHT22;12780;45.502;9.146;2023-04-03T17:16:00;15.70;99.90
24645;DHT22;12780;45.502;9.146;2023-04-03T17:18:28;15.70;99.90
24645;DHT22;12780;45.502;9.146;2023-04-03T17:20:55;15.70;99.90